createdAt,value
2019-05-13T00:00:15.810Z,75.80
2019-05-13T00:02:44.217Z,76.02
2019-05-13T00:05:14.675Z,76.70
2019-05-13T00:07:43.940Z,76.62
2019-05-13T00:10:14.786Z,78.56
2019-05-13T00:12:44.650Z,79.60
2019-05-13T00:15:13.906Z,79.32
2019-05-13T00:17:44.686Z,79.80
2019-05-13T00:20:14.058Z,80.10
2019-05-13T00:22:44.750Z,79.73
2019-05-13T00:25:14.536Z,80.02
2019-05-13T00:27:44.519Z,80.05
2019-05-13T00:30:14.445Z,79.89
2019-05-13T00:32:44.547Z,80.31
2019-05-13T00:35:14.264Z,80.45
2019-05-13T00:37:44.275Z,80.38
2019-05-13T00:40:14.342Z,80.48
2019-05-13T00:42:44.163Z,80.84
2019-05-13T00:45:14.563Z,80.09
2019-05-13T00:47:43.811Z,80.55
2019-05-13T00:50:14.278Z,80.46
2019-05-13T00:52:44.928Z,80.79
2019-05-13T00:55:14.773Z,81.69
2019-05-13T00:57:43.813Z,81.72
2019-05-13T01:00:14.146Z,81.86
2019-05-13T01:02:44.702Z,81.42
2019-05-13T01:05:14.730Z,81.60
2019-05-13T01:07:44.311Z,81.71
2019-05-13T01:10:13.618Z,81.81
2019-05-13T01:12:44.117Z,81.74
2019-05-13T01:15:13.461Z,81.67
2019-05-13T01:17:44.454Z,81.79
2019-05-13T01:20:14.408Z,81.54
2019-05-13T01:22:44.077Z,81.76
2019-05-13T01:25:14.425Z,81.23
2019-05-13T01:27:44.161Z,81.60
2019-05-13T01:30:13.506Z,81.50
2019-05-13T01:32:44.605Z,81.77
2019-05-13T01:35:14.582Z,82.37
2019-05-13T01:37:45.908Z,82.87
2019-05-13T01:40:13.579Z,82.76
2019-05-13T01:42:44.177Z,82.59
2019-05-13T01:45:13.662Z,82.53
2019-05-13T01:47:44.014Z,82.56
2019-05-13T01:50:14.305Z,82.94
2019-05-13T01:52:44.495Z,83.05
2019-05-13T01:55:14.617Z,82.89
2019-05-13T01:57:44.348Z,82.76
2019-05-13T02:00:14.168Z,82.90
2019-05-13T02:02:44.422Z,82.94
2019-05-13T02:05:14.073Z,83.79
2019-05-13T02:07:56.098Z,83.52
2019-05-13T02:10:14.834Z,83.15
2019-05-13T02:12:44.665Z,83.71
2019-05-13T02:15:14.542Z,84.38
2019-05-13T02:17:44.816Z,83.72
2019-05-13T02:20:14.757Z,83.60
2019-05-13T02:22:44.571Z,83.74
2019-05-13T02:25:14.693Z,83.34
2019-05-13T02:27:43.999Z,83.50
2019-05-13T02:30:16.256Z,83.49
2019-05-13T02:32:44.271Z,83.71
2019-05-13T02:35:14.397Z,84.28
2019-05-13T02:37:43.848Z,84.46
2019-05-13T02:40:13.950Z,84.87
2019-05-13T02:42:43.687Z,83.79
2019-05-13T02:45:12.731Z,84.21
2019-05-13T02:47:44.129Z,84.24
2019-05-13T02:50:14.060Z,83.73
2019-05-13T02:52:44.336Z,83.85
2019-05-13T02:55:16.755Z,84.33
2019-05-13T02:57:45.166Z,85.31
2019-05-13T03:00:15.485Z,84.26
2019-05-13T03:02:44.285Z,84.55
2019-05-13T03:05:14.003Z,85.10
2019-05-13T03:07:43.034Z,85.25
2019-05-13T03:10:13.526Z,86.07
2019-05-13T03:12:42.875Z,85.38
2019-05-13T03:15:13.243Z,85.25
2019-05-13T03:17:52.909Z,84.62
2019-05-13T03:20:23.035Z,84.93
2019-05-13T03:22:52.674Z,84.85
2019-05-13T03:25:22.706Z,84.62
2019-05-13T03:27:54.214Z,84.16
2019-05-13T03:30:25.131Z,83.78
2019-05-13T03:32:59.050Z,83.40
2019-05-13T03:35:26.726Z,83.77
2019-05-13T03:37:53.063Z,83.51
2019-05-13T03:40:23.062Z,83.17
2019-05-13T03:42:53.510Z,83.81
2019-05-13T03:45:24.606Z,84.51
2019-05-13T03:47:52.796Z,85.05
2019-05-13T03:50:22.676Z,85.99
2019-05-13T03:52:52.571Z,86.15
2019-05-13T03:55:22.943Z,86.33
2019-05-13T03:57:53.396Z,85.91
2019-05-13T04:00:23.530Z,86.42
2019-05-13T04:02:52.913Z,86.09
2019-05-13T04:05:22.827Z,86.49
2019-05-13T04:07:52.477Z,85.58
2019-05-13T04:10:22.799Z,85.43
2019-05-13T04:12:52.695Z,85.38
2019-05-13T04:15:23.808Z,85.44
2019-05-13T04:17:53.099Z,85.28
2019-05-13T04:20:23.469Z,85.50
2019-05-13T04:22:53.216Z,85.72
2019-05-13T04:25:23.475Z,85.87
2019-05-13T04:27:53.395Z,85.36
2019-05-13T04:30:22.967Z,85.56
2019-05-13T04:32:53.540Z,85.56
2019-05-13T04:35:23.923Z,85.79
2019-05-13T04:37:53.074Z,85.68
2019-05-13T04:40:23.195Z,85.49
2019-05-13T04:42:53.582Z,85.25
2019-05-13T04:45:23.820Z,85.17
2019-05-13T04:47:52.926Z,85.18
2019-05-13T04:50:22.602Z,85.68
2019-05-13T04:52:52.760Z,85.57
2019-05-13T04:55:23.217Z,85.42
2019-05-13T04:57:53.220Z,85.89
2019-05-13T05:00:49.892Z,85.66
2019-05-13T05:03:33.171Z,86.43
2019-05-13T05:05:59.241Z,85.51
2019-05-13T05:08:41.976Z,85.24
2019-05-13T05:11:42.395Z,82.73
2019-05-13T05:14:14.993Z,82.48
2019-05-13T05:17:03.251Z,83.59
2019-05-13T05:20:07.374Z,82.13
2019-05-13T05:22:44.526Z,82.60
2019-05-13T05:25:24.963Z,81.88
2019-05-13T05:28:11.514Z,79.82
2019-05-13T05:30:59.372Z,79.62
2019-05-13T05:33:51.657Z,78.89
2019-05-13T05:36:56.287Z,78.59
2019-05-13T05:39:26.345Z,78.96
2019-05-13T05:41:57.061Z,79.03
2019-05-13T05:44:32.125Z,79.55
2019-05-13T05:47:02.829Z,79.58
2019-05-13T05:49:32.187Z,79.83
2019-05-13T05:52:02.991Z,80.91
2019-05-13T05:54:32.245Z,79.88
2019-05-13T05:57:02.547Z,80.03
2019-05-13T05:59:32.140Z,78.42
2019-05-13T06:02:01.988Z,80.10
2019-05-13T06:04:32.476Z,80.44
2019-05-13T06:07:03.158Z,80.55
2019-05-13T06:09:32.384Z,80.58
2019-05-13T06:12:01.703Z,79.31
2019-05-13T06:14:32.774Z,77.55
2019-05-13T06:17:02.829Z,79.40
2019-05-13T06:19:32.168Z,78.63
2019-05-13T06:22:02.208Z,77.00
2019-05-13T06:24:31.453Z,76.67
2019-05-13T06:27:01.491Z,76.22
2019-05-13T06:29:32.039Z,76.71
2019-05-13T06:32:15.189Z,76.80
2019-05-13T06:34:33.146Z,76.12
2019-05-13T06:37:02.060Z,76.79
2019-05-13T06:39:32.086Z,75.85
2019-05-13T06:42:02.668Z,76.08
2019-05-13T06:44:31.646Z,75.79
2019-05-13T06:47:02.576Z,76.42
2019-05-13T06:49:32.222Z,74.33
2019-05-13T06:52:01.775Z,73.88
2019-05-13T06:54:33.394Z,73.77
2019-05-13T06:57:05.313Z,74.13
2019-05-13T06:59:33.517Z,73.31
2019-05-13T07:02:02.418Z,73.04
2019-05-13T07:04:32.679Z,73.48
2019-05-13T07:07:12.281Z,71.31
2019-05-13T07:09:33.819Z,72.02
2019-05-13T07:12:03.246Z,70.62
2019-05-13T07:14:32.733Z,69.61
2019-05-13T07:17:02.160Z,68.14
2019-05-13T07:19:32.373Z,67.20
2019-05-13T07:22:02.770Z,68.16
2019-05-13T07:24:32.219Z,68.44
2019-05-13T07:27:01.873Z,67.59
2019-05-13T07:29:32.564Z,67.62
2019-05-13T07:32:01.718Z,66.35
2019-05-13T07:34:33.696Z,65.45
2019-05-13T07:37:02.036Z,65.90
2019-05-13T07:39:32.674Z,65.09
2019-05-13T07:42:04.681Z,66.00
2019-05-13T07:44:32.378Z,64.08
2019-05-13T07:47:03.491Z,65.25
2019-05-13T07:49:31.671Z,64.24
2019-05-13T07:52:01.666Z,62.44
2019-05-13T07:54:32.594Z,62.31
2019-05-13T07:57:01.939Z,61.20
2019-05-13T07:59:31.841Z,60.95
2019-05-13T08:02:02.037Z,60.55
2019-05-13T08:04:33.278Z,60.38
2019-05-13T08:07:01.975Z,58.71
2019-05-13T08:09:31.835Z,59.21
2019-05-13T08:12:09.904Z,58.22
2019-05-13T08:14:32.613Z,59.56
2019-05-13T08:17:02.632Z,57.37
2019-05-13T08:19:32.604Z,57.58
2019-05-13T08:22:05.310Z,58.71
2019-05-13T08:24:33.764Z,59.40
2019-05-13T08:27:02.565Z,58.43
2019-05-13T08:29:32.827Z,55.51
2019-05-13T08:32:02.805Z,55.89
2019-05-13T08:34:32.929Z,56.12
2019-05-13T08:37:02.877Z,55.55
2019-05-13T08:39:36.573Z,51.67
2019-05-13T08:42:12.814Z,51.64
2019-05-13T08:44:32.497Z,52.86
2019-05-13T08:47:03.024Z,53.85
2019-05-13T08:49:32.630Z,52.10
2019-05-13T08:52:01.734Z,53.48
2019-05-13T08:54:32.885Z,51.48
2019-05-13T08:57:02.882Z,51.57
2019-05-13T08:59:31.752Z,48.44
2019-05-13T09:02:02.958Z,49.09
2019-05-13T09:04:31.566Z,50.00
2019-05-13T09:07:02.172Z,48.74
2019-05-13T09:09:31.375Z,44.27
2019-05-13T09:12:02.372Z,45.74
2019-05-13T09:14:32.611Z,46.81
2019-05-13T09:17:02.132Z,47.96
2019-05-13T09:19:32.201Z,48.79
2019-05-13T09:22:03.350Z,48.81
2019-05-13T09:24:37.861Z,47.28
2019-05-13T09:27:05.581Z,44.70
2019-05-13T09:29:33.999Z,40.25
2019-05-13T09:32:03.779Z,42.97
2019-05-13T09:34:33.047Z,45.20
2019-05-13T09:37:02.755Z,41.32
2019-05-13T09:39:32.282Z,41.57
2019-05-13T09:42:02.702Z,39.75
2019-05-13T09:44:32.841Z,38.70
2019-05-13T09:47:02.512Z,40.56
2019-05-13T09:49:32.874Z,41.34
2019-05-13T09:52:01.851Z,40.31
2019-05-13T09:54:32.524Z,40.52
2019-05-13T09:57:01.693Z,41.82
2019-05-13T09:59:31.779Z,40.46
2019-05-13T10:02:02.875Z,41.20
2019-05-13T10:04:31.793Z,42.18
2019-05-13T10:07:02.273Z,43.58
2019-05-13T10:09:32.659Z,40.45
2019-05-13T10:12:03.149Z,41.61
2019-05-13T10:14:32.776Z,40.14
2019-05-13T10:17:05.778Z,38.83
2019-05-13T10:19:32.232Z,39.10
2019-05-13T10:22:00.940Z,40.44
2019-05-13T10:24:29.528Z,37.88
2019-05-13T10:26:58.010Z,38.96
2019-05-13T10:29:26.448Z,35.89
2019-05-13T10:31:54.889Z,33.37
2019-05-13T10:34:23.465Z,34.91
2019-05-13T10:36:52.197Z,34.96
2019-05-13T10:39:22.391Z,36.84
2019-05-13T10:41:52.341Z,36.50
2019-05-13T10:44:20.975Z,37.79
2019-05-13T10:46:52.005Z,35.56
2019-05-13T10:49:22.159Z,36.04
2019-05-13T10:51:52.666Z,34.47
2019-05-13T10:54:21.846Z,35.07
2019-05-13T10:56:53.209Z,35.21
2019-05-13T10:59:22.975Z,35.45
2019-05-13T11:01:51.597Z,35.71
2019-05-13T11:04:22.221Z,35.00
2019-05-13T11:06:52.451Z,36.13
2019-05-13T11:09:22.108Z,35.87
2019-05-13T11:11:52.867Z,36.09
2019-05-13T11:14:22.026Z,34.87
2019-05-13T11:16:52.396Z,35.31
2019-05-13T11:19:23.202Z,35.52
2019-05-13T11:21:51.303Z,34.87
2019-05-13T11:24:26.807Z,35.35
2019-05-13T11:26:55.240Z,34.97
2019-05-13T11:29:23.666Z,35.34
2019-05-13T11:31:53.287Z,34.31
2019-05-13T11:34:22.389Z,32.94
2019-05-13T11:36:53.512Z,33.62
2019-05-13T11:39:22.407Z,30.88
2019-05-13T11:41:50.856Z,31.11
2019-05-13T11:44:22.578Z,32.46
2019-05-13T11:46:53.015Z,32.32
2019-05-13T11:49:20.504Z,31.36
2019-05-13T11:51:48.908Z,31.50
2019-05-13T11:54:17.344Z,32.46
2019-05-13T11:56:49.728Z,30.50
2019-05-13T11:59:16.043Z,31.69
2019-05-13T12:01:44.487Z,31.44
2019-05-13T12:04:12.915Z,30.14
2019-05-13T12:06:47.898Z,26.12
2019-05-13T12:09:13.086Z,26.88
2019-05-13T12:11:41.935Z,24.48
2019-05-13T12:14:37.484Z,26.39
2019-05-13T12:16:42.317Z,26.61
2019-05-13T12:19:11.831Z,21.99
2019-05-13T12:21:43.424Z,22.08
2019-05-13T12:24:11.410Z,21.73
2019-05-13T12:26:43.118Z,20.92
2019-05-13T12:29:17.838Z,22.06
2019-05-13T12:31:40.188Z,20.95
2019-05-13T12:34:12.755Z,20.85
2019-05-13T12:36:38.751Z,23.29
2019-05-13T12:39:07.958Z,20.25
2019-05-13T12:41:36.348Z,22.59
2019-05-13T12:44:04.900Z,21.76
2019-05-13T12:46:33.273Z,21.72
2019-05-13T12:49:03.866Z,23.74
2019-05-13T12:51:32.583Z,24.21
2019-05-13T12:54:03.751Z,23.12
2019-05-13T12:56:33.323Z,22.15
2019-05-13T12:59:02.915Z,22.92
2019-05-13T13:01:32.398Z,22.64
2019-05-13T13:04:02.207Z,23.27
2019-05-13T13:06:40.003Z,23.20
2019-05-13T13:09:00.887Z,22.50
2019-05-13T13:11:32.072Z,22.83
2019-05-13T13:14:04.053Z,22.16
2019-05-13T13:16:34.273Z,22.93
2019-05-13T13:19:02.451Z,21.88
2019-05-13T13:21:34.268Z,24.22
2019-05-13T13:26:33.758Z,23.80
2019-05-13T13:29:02.376Z,24.68
2019-05-13T13:31:33.532Z,22.50
2019-05-13T13:34:11.278Z,23.21
2019-05-13T13:36:33.572Z,24.71
2019-05-13T13:39:03.760Z,27.15
2019-05-13T13:41:32.744Z,27.56
2019-05-13T13:44:05.550Z,27.78
2019-05-13T13:46:41.170Z,28.00
2019-05-13T13:49:03.490Z,28.78
2019-05-13T13:51:34.401Z,27.02
2019-05-13T13:54:03.684Z,28.04
2019-05-13T13:56:32.782Z,27.38
2019-05-13T13:59:04.452Z,28.02
2019-05-13T14:01:33.316Z,29.87
2019-05-13T14:04:03.677Z,28.59
2019-05-13T14:07:11.709Z,23.98
2019-05-13T14:07:22.503Z,29.69
2019-05-13T14:09:01.904Z,28.27
2019-05-13T14:11:32.875Z,28.80
2019-05-13T14:14:02.147Z,28.80
2019-05-13T14:16:34.881Z,30.08
2019-05-13T14:19:00.976Z,30.08
2019-05-13T14:21:29.400Z,29.82
2019-05-13T14:23:57.811Z,29.70
2019-05-13T14:26:26.240Z,31.32
2019-05-13T14:28:54.636Z,30.20
2019-05-13T14:31:23.079Z,29.51
2019-05-13T14:33:51.993Z,30.46
2019-05-13T14:36:23.050Z,30.08
2019-05-13T14:38:52.766Z,30.59
2019-05-13T14:41:22.030Z,30.75
2019-05-13T14:43:51.715Z,30.40
2019-05-13T14:46:25.212Z,31.14
2019-05-13T14:48:50.503Z,31.52
2019-05-13T14:51:18.913Z,31.31
2019-05-13T14:53:47.347Z,31.15
2019-05-13T14:56:15.755Z,31.43
2019-05-13T14:58:44.190Z,31.21
2019-05-13T15:01:18.694Z,30.30
2019-05-13T15:03:42.772Z,31.59
2019-05-13T15:06:11.946Z,31.22
2019-05-13T15:08:42.137Z,32.76
2019-05-13T15:11:12.649Z,31.84
2019-05-13T15:13:42.582Z,33.42
2019-05-13T15:16:11.290Z,32.23
2019-05-13T15:18:41.656Z,32.76
2019-05-13T15:21:12.237Z,32.87
2019-05-13T15:23:42.257Z,31.74
2019-05-13T15:26:12.097Z,30.88
2019-05-13T15:28:42.171Z,31.12
2019-05-13T15:31:11.913Z,32.14
2019-05-13T15:33:41.602Z,32.72
2019-05-13T15:36:12.132Z,34.31
2019-05-13T15:38:41.409Z,33.74
2019-05-13T15:41:15.219Z,33.43
2019-05-13T15:43:42.181Z,33.75
2019-05-13T15:46:12.527Z,34.12
2019-05-13T15:48:42.173Z,33.74
2019-05-13T15:51:12.566Z,33.63
2019-05-13T15:53:43.570Z,32.83
2019-05-13T15:56:12.644Z,32.41
2019-05-13T15:58:44.080Z,32.54
2019-05-13T16:01:17.098Z,33.91
2019-05-13T16:03:45.551Z,32.49
2019-05-13T16:06:17.215Z,32.68
2019-05-13T16:08:57.773Z,32.10
2019-05-13T16:11:28.895Z,32.95
2019-05-13T16:13:57.418Z,32.03
2019-05-13T16:16:41.432Z,31.80
2019-05-13T16:19:08.820Z,32.01
2019-05-13T16:21:37.334Z,32.05
2019-05-13T16:24:06.102Z,32.02
2019-05-13T16:26:34.757Z,31.55
2019-05-13T16:29:03.290Z,31.87
2019-05-13T16:31:33.469Z,30.86
2019-05-13T16:34:02.051Z,30.93
2019-05-13T16:36:31.378Z,31.72
2019-05-13T16:39:02.151Z,31.69
2019-05-13T16:41:32.313Z,31.30
2019-05-13T16:44:04.089Z,30.91
2019-05-13T16:46:32.646Z,30.62
2019-05-13T16:49:02.473Z,30.60
2019-05-13T16:51:35.131Z,29.85
2019-05-13T16:54:03.587Z,30.00
2019-05-13T16:56:41.830Z,30.48
2019-05-13T16:59:13.648Z,30.26
2019-05-13T17:04:54.687Z,31.14
2019-05-13T17:07:23.276Z,31.06
2019-05-13T17:09:53.406Z,31.37
2019-05-13T17:12:45.691Z,32.03
2019-05-13T17:15:17.958Z,31.79
2019-05-13T17:18:11.568Z,31.30
2019-05-13T17:20:27.613Z,32.13
2019-05-13T17:23:03.260Z,32.30
2019-05-13T17:25:32.738Z,32.12
2019-05-13T17:28:05.273Z,32.43
2019-05-13T17:31:11.539Z,32.36
2019-05-13T17:33:52.170Z,32.62
2019-05-13T17:36:25.733Z,33.70
2019-05-13T17:38:55.976Z,34.07
2019-05-13T17:41:31.948Z,35.62
2019-05-13T17:44:02.227Z,35.51
2019-05-13T17:46:32.468Z,35.89
2019-05-13T17:49:03.760Z,36.44
2019-05-13T17:51:32.239Z,36.94
2019-05-13T17:54:01.462Z,35.74
2019-05-13T17:56:34.749Z,35.91
2019-05-13T17:59:11.985Z,36.85
2019-05-13T18:01:41.915Z,36.90
2019-05-13T18:04:22.654Z,36.81
2019-05-13T18:07:01.766Z,36.95
2019-05-13T18:09:32.550Z,37.54
2019-05-13T18:12:08.569Z,36.71
2019-05-13T18:14:41.236Z,37.46
2019-05-13T18:17:23.966Z,38.06
2019-05-13T18:20:02.672Z,36.60
2019-05-13T18:22:37.474Z,36.75
2019-05-13T18:25:12.910Z,37.03
2019-05-13T18:27:41.773Z,35.94
2019-05-13T18:30:11.696Z,37.06
2019-05-13T18:32:47.650Z,36.65
2019-05-13T18:35:16.170Z,36.98
2019-05-13T18:37:44.708Z,36.53
2019-05-13T18:40:13.604Z,37.32
2019-05-13T18:42:44.836Z,37.34
2019-05-13T18:45:13.445Z,37.51
2019-05-13T18:47:41.952Z,38.71
2019-05-13T18:50:12.476Z,38.85
2019-05-13T18:52:43.702Z,39.44
2019-05-13T18:55:15.711Z,40.74
2019-05-13T18:57:48.336Z,41.08
2019-05-13T19:00:16.853Z,41.33
2019-05-13T19:02:45.298Z,41.76
2019-05-13T19:05:13.921Z,42.65
2019-05-13T19:07:44.830Z,42.82
2019-05-13T19:10:17.068Z,43.59
2019-05-13T19:12:45.526Z,44.52
2019-05-13T19:15:14.235Z,44.78
2019-05-13T19:17:42.701Z,45.17
2019-05-13T19:20:11.752Z,45.22
2019-05-13T19:22:41.290Z,46.13
2019-05-13T19:25:11.934Z,46.09
2019-05-13T19:27:41.347Z,46.56
2019-05-13T19:30:12.249Z,47.08
2019-05-13T19:32:41.692Z,47.34
2019-05-13T19:35:11.640Z,48.06
2019-05-13T19:37:42.519Z,48.50
2019-05-13T19:40:12.726Z,49.92
2019-05-13T19:42:41.849Z,49.92
2019-05-13T19:45:12.119Z,50.17
2019-05-13T19:47:41.792Z,50.46
2019-05-13T19:50:10.708Z,51.28
2019-05-13T19:52:41.304Z,51.36
2019-05-13T19:55:09.354Z,52.01
2019-05-13T19:57:37.780Z,52.37
2019-05-13T20:00:10.587Z,52.42
2019-05-13T20:02:39.222Z,53.01
2019-05-13T20:05:08.128Z,53.09
2019-05-13T20:07:36.547Z,53.54
2019-05-13T20:10:07.973Z,54.14
2019-05-13T20:12:36.353Z,54.17
2019-05-13T20:15:06.223Z,54.25
2019-05-13T20:17:34.706Z,55.18
2019-05-13T20:20:03.192Z,54.57
2019-05-13T20:22:32.845Z,54.62
2019-05-13T20:25:01.317Z,54.84
2019-05-13T20:27:31.810Z,54.91
2019-05-13T20:30:01.594Z,54.86
2019-05-13T20:32:32.405Z,55.33
2019-05-13T20:35:02.171Z,55.76
2019-05-13T20:37:32.188Z,56.02
2019-05-13T20:40:02.266Z,55.72
2019-05-13T20:42:33.023Z,56.42
2019-05-13T20:45:02.419Z,56.56
2019-05-13T20:47:33.283Z,56.49
2019-05-13T20:50:02.321Z,56.74
2019-05-13T20:52:31.533Z,57.47
2019-05-13T20:55:01.849Z,57.46
2019-05-13T20:57:32.215Z,58.31
2019-05-13T21:00:02.357Z,58.45
2019-05-13T21:02:31.954Z,58.83
2019-05-13T21:05:01.610Z,58.89
2019-05-13T21:07:32.003Z,60.11
2019-05-13T21:10:01.437Z,61.04
2019-05-13T21:12:31.402Z,60.54
2019-05-13T21:15:01.406Z,61.02
2019-05-13T21:17:30.034Z,61.72
2019-05-13T21:20:01.009Z,62.43
2019-05-13T21:22:28.646Z,62.39
2019-05-13T21:24:57.076Z,62.92
2019-05-13T21:27:25.501Z,63.72
2019-05-13T21:29:53.926Z,64.10
2019-05-13T21:32:22.356Z,63.90
2019-05-13T21:34:51.600Z,64.02
2019-05-13T21:37:22.063Z,64.12
2019-05-13T21:39:51.680Z,64.69
2019-05-13T21:42:21.588Z,65.14
2019-05-13T21:44:51.284Z,65.49
2019-05-13T21:47:21.842Z,66.10
2019-05-13T21:49:51.513Z,66.98
2019-05-13T21:52:23.614Z,66.98
2019-05-13T21:54:51.604Z,66.71
2019-05-13T21:57:20.092Z,66.69
2019-05-13T21:59:48.513Z,67.03
2019-05-13T22:02:16.949Z,67.44
2019-05-13T22:04:45.368Z,67.45
2019-05-13T22:07:13.795Z,68.44
2019-05-13T22:09:42.403Z,68.32
2019-05-13T22:12:10.874Z,67.98
2019-05-13T22:14:41.316Z,68.04
2019-05-13T22:17:12.261Z,67.75
2019-05-13T22:19:41.966Z,68.15
2019-05-13T22:22:11.633Z,68.67
2019-05-13T22:24:41.921Z,68.76
2019-05-13T22:27:12.996Z,69.31
2019-05-13T22:29:42.007Z,70.16
2019-05-13T22:32:11.284Z,70.01
2019-05-13T22:34:41.774Z,69.61
2019-05-13T22:37:11.711Z,69.87
2019-05-13T22:39:42.276Z,70.21
2019-05-13T22:42:12.422Z,70.68
2019-05-13T22:44:41.796Z,69.89
2019-05-13T22:47:12.977Z,70.82
2019-05-13T22:49:41.416Z,71.25
2019-05-13T22:52:11.445Z,72.65
2019-05-13T22:54:41.244Z,71.37
2019-05-13T22:57:12.007Z,72.00
2019-05-13T22:59:41.581Z,71.61
2019-05-13T23:02:10.160Z,72.60
2019-05-13T23:04:38.581Z,73.12
2019-05-13T23:07:07.010Z,71.79
2019-05-13T23:09:35.441Z,72.91
2019-05-13T23:12:03.876Z,73.86
2019-05-13T23:14:32.314Z,72.56
2019-05-13T23:17:02.138Z,73.78
2019-05-13T23:19:32.343Z,74.29
2019-05-13T23:22:01.615Z,74.03
2019-05-13T23:24:31.147Z,72.90
2019-05-13T23:27:01.951Z,72.64
2019-05-13T23:29:31.757Z,72.92
2019-05-13T23:32:01.497Z,72.36
2019-05-13T23:34:31.753Z,72.66
2019-05-13T23:37:00.154Z,72.90
2019-05-13T23:39:28.585Z,72.98
2019-05-13T23:41:57.002Z,73.46
2019-05-13T23:44:28.226Z,73.72
2019-05-13T23:46:55.551Z,73.49
2019-05-13T23:49:23.962Z,73.62
2019-05-13T23:51:52.405Z,73.61
2019-05-13T23:54:21.348Z,73.76
2019-05-13T23:56:49.918Z,74.17
2019-05-13T23:59:18.334Z,73.85
